Time;durP1;ratioP1;P1;durP2;ratioP2;P2;SDS_P1;SDS_P2;PMS_P1;PMS_P2;Temp;Humidity;BMP_temperature;BMP_pressure;BME280_temperature;BME280_humidity;BME280_pressure;Samples;Min_cycle;Max_cycle;Signal;HPM_P1;HPM_P2
2020/12/02 00:01:33;;;;;;;27.20;17.85;;;9.10;99.90;;;;;;5053910;28;20490;-74
2020/12/02 00:04:11;;;;;;;26.58;18.38;;;9.10;99.90;;;;;;5054114;28;20482;-75
2020/12/02 00:06:40;;;;;;;32.70;19.08;;;9.10;99.90;;;;;;5056916;28;20028;-75
2020/12/02 00:09:21;;;;;;;29.88;19.02;;;9.10;99.90;;;;;;5056073;28;20024;-75
2020/12/02 00:11:48;;;;;;;28.73;17.92;;;9.20;99.90;;;;;;5057110;28;20418;-75
2020/12/02 00:14:27;;;;;;;29.90;19.00;;;9.20;99.90;;;;;;5055042;28;20416;-75
2020/12/02 00:16:53;;;;;;;30.00;18.02;;;9.20;99.90;;;;;;5056936;28;20048;-75
2020/12/02 00:19:20;;;;;;;27.42;18.25;;;9.30;99.90;;;;;;5057111;28;20484;-75
2020/12/02 00:21:59;;;;;;;28.63;18.08;;;9.30;99.90;;;;;;5059094;28;20021;-75
2020/12/02 00:24:25;;;;;;;29.23;18.80;;;9.20;99.90;;;;;;5064724;28;20028;-75
2020/12/02 00:26:51;;;;;;;29.95;19.25;;;9.20;99.90;;;;;;5061930;28;20103;-75
2020/12/02 00:29:17;;;;;;;27.23;17.45;;;9.20;99.90;;;;;;5068475;28;20112;-76
2020/12/02 00:31:42;;;;;;;27.92;17.10;;;9.20;99.90;;;;;;5065014;28;20044;-75
2020/12/02 00:34:08;;;;;;;28.55;17.85;;;9.00;99.90;;;;;;5068580;28;20040;-74
2020/12/02 00:36:33;;;;;;;28.45;16.67;;;9.00;99.90;;;;;;5058503;28;20028;-75
2020/12/02 00:38:59;;;;;;;28.23;16.85;;;8.90;99.90;;;;;;5062172;28;20036;-75
2020/12/02 00:41:25;;;;;;;27.00;17.00;;;8.80;99.90;;;;;;5062518;28;20040;-75
2020/12/02 00:43:50;;;;;;;25.30;15.70;;;8.90;99.90;;;;;;5068616;28;20109;-74
2020/12/02 00:46:16;;;;;;;28.77;17.08;;;8.90;99.90;;;;;;5062570;28;20106;-75
2020/12/02 00:48:49;;;;;;;28.10;16.13;;;8.90;99.90;;;;;;5065954;28;20040;-74
2020/12/02 00:51:15;;;;;;;27.70;15.88;;;8.90;99.90;;;;;;5061019;28;20055;-73
2020/12/02 00:53:40;;;;;;;29.48;17.90;;;8.90;99.90;;;;;;5061515;28;20466;-73
2020/12/02 00:56:10;;;;;;;26.83;16.33;;;8.90;99.90;;;;;;5059237;28;20036;-73
2020/12/02 00:58:42;;;;;;;26.88;15.85;;;8.90;99.90;;;;;;5066599;28;20044;-73
2020/12/02 01:01:11;;;;;;;27.15;16.60;;;8.90;99.90;;;;;;5057287;28;20024;-74
2020/12/02 01:03:37;;;;;;;26.00;15.70;;;8.90;99.90;;;;;;5061290;28;20037;-73
2020/12/02 01:06:05;;;;;;;24.80;15.07;;;8.80;99.90;;;;;;5062123;28;20031;-73
2020/12/02 01:08:43;;;;;;;27.67;16.13;;;8.80;99.90;;;;;;5069228;28;20031;-73
2020/12/02 01:11:25;;;;;;;28.80;16.70;;;8.80;99.90;;;;;;5069670;28;20201;-75
2020/12/02 01:14:00;;;;;;;24.00;15.93;;;8.80;99.90;;;;;;5059490;28;20041;-74
2020/12/02 01:16:33;;;;;;;22.45;13.95;;;8.80;99.90;;;;;;5051997;28;20020;-74
2020/12/02 01:18:59;;;;;;;28.38;16.40;;;8.70;99.90;;;;;;5058158;28;20051;-74
2020/12/02 01:21:36;;;;;;;25.77;15.25;;;8.70;99.90;;;;;;5052081;28;20025;-75
2020/12/02 01:24:07;;;;;;;25.08;15.85;;;8.60;99.90;;;;;;5057624;28;20047;-74
2020/12/02 01:26:46;;;;;;;26.60;15.90;;;8.70;99.90;;;;;;5054246;28;20075;-75
2020/12/02 01:29:20;;;;;;;25.85;14.80;;;8.70;99.90;;;;;;5054407;28;20051;-74
2020/12/02 01:31:51;;;;;;;28.33;15.73;;;8.80;99.90;;;;;;5053787;28;20059;-75
2020/12/02 01:34:18;;;;;;;25.05;15.38;;;8.80;99.90;;;;;;5053367;28;20028;-74
2020/12/02 01:37:25;;;;;;;25.02;14.82;;;8.80;99.90;;;;;;5059051;28;20095;-74
2020/12/02 01:39:59;;;;;;;24.83;14.63;;;8.80;99.90;;;;;;5040740;28;20063;-74
2020/12/02 01:42:25;;;;;;;26.17;15.23;;;8.90;99.90;;;;;;5064899;28;20029;-75
2020/12/02 01:44:51;;;;;;;22.52;14.52;;;8.80;99.90;;;;;;5056468;28;20032;-75
2020/12/02 01:47:34;;;;;;;26.13;14.82;;;8.80;99.90;;;;;;5054550;28;20070;-75
2020/12/02 01:50:40;;;;;;;23.05;13.80;;;8.90;99.90;;;;;;5050070;28;20021;-74
2020/12/02 01:53:18;;;;;;;25.60;14.90;;;8.90;99.90;;;;;;5046133;28;20049;-73
2020/12/02 01:55:57;;;;;;;24.45;15.15;;;9.00;99.90;;;;;;5061447;28;20035;-75
2020/12/02 01:59:16;;;;;;;25.17;14.68;;;8.80;99.90;;;;;;5058368;28;20044;-74
2020/12/02 02:02:14;;;;;;;24.83;14.80;;;8.80;99.90;;;;;;5025323;28;20049;-75
2020/12/02 02:04:42;;;;;;;24.55;15.48;;;8.90;99.90;;;;;;5052543;28;20025;-75
2020/12/02 02:07:16;;;;;;;25.13;16.05;;;8.90;99.90;;;;;;5053560;28;20025;-75
2020/12/02 02:09:44;;;;;;;24.27;14.75;;;8.90;99.90;;;;;;5051513;28;20512;-75
2020/12/02 02:12:39;;;;;;;27.52;15.43;;;8.90;99.90;;;;;;5057697;28;20049;-73
2020/12/02 02:15:16;;;;;;;24.95;15.48;;;8.90;99.90;;;;;;5038150;28;20044;-73
2020/12/02 02:17:42;;;;;;;26.52;14.70;;;8.90;99.90;;;;;;5053511;28;20120;-73
2020/12/02 02:20:09;;;;;;;27.48;15.25;;;8.80;99.90;;;;;;5048131;28;20481;-73
2020/12/02 02:22:35;;;;;;;24.45;14.32;;;8.90;99.90;;;;;;5052139;28;20032;-73
2020/12/02 02:25:02;;;;;;;25.40;14.40;;;8.90;99.90;;;;;;5053029;28;20047;-73
2020/12/02 02:27:28;;;;;;;26.58;15.30;;;8.90;99.90;;;;;;5054571;28;20032;-73
2020/12/02 02:29:55;;;;;;;24.52;15.32;;;8.90;99.90;;;;;;5054071;28;20024;-73
2020/12/02 02:32:25;;;;;;;24.27;14.55;;;8.90;99.90;;;;;;5053393;28;20036;-73
2020/12/02 02:34:57;;;;;;;29.38;16.35;;;9.00;99.90;;;;;;5059039;28;20021;-73
2020/12/02 02:37:27;;;;;;;28.23;14.98;;;8.90;99.90;;;;;;5052018;28;20047;-73
2020/12/02 02:39:54;;;;;;;30.67;16.52;;;9.00;99.90;;;;;;5053211;28;20024;-73
2020/12/02 02:42:22;;;;;;;31.88;16.45;;;9.00;99.90;;;;;;5055689;28;20017;-73
2020/12/02 02:44:48;;;;;;;31.75;17.60;;;8.90;99.90;;;;;;5058167;28;20036;-73
2020/12/02 02:47:14;;;;;;;36.03;17.48;;;8.90;99.90;;;;;;5052053;28;20142;-72
2020/12/02 02:49:40;;;;;;;41.70;19.83;;;8.90;99.90;;;;;;5048503;28;20090;-72
2020/12/02 02:52:06;;;;;;;43.10;20.00;;;8.90;99.90;;;;;;5061179;28;20036;-73
2020/12/02 02:54:31;;;;;;;45.75;21.45;;;8.90;99.90;;;;;;5054027;28;20025;-73
2020/12/02 02:56:57;;;;;;;45.63;22.55;;;8.80;99.90;;;;;;5059964;28;20107;-73
2020/12/02 02:59:23;;;;;;;44.97;21.13;;;8.90;99.90;;;;;;5057628;28;20040;-73
2020/12/02 03:01:49;;;;;;;49.65;21.38;;;8.90;99.90;;;;;;5058147;28;20051;-72
2020/12/02 03:04:14;;;;;;;51.47;23.23;;;8.90;99.90;;;;;;5058790;28;20021;-73
2020/12/02 03:06:40;;;;;;;52.63;22.85;;;8.90;99.90;;;;;;5053555;28;20128;-72
2020/12/02 03:09:09;;;;;;;42.15;21.05;;;8.90;99.90;;;;;;5055536;28;20063;-73
2020/12/02 03:11:35;;;;;;;49.05;23.85;;;8.90;99.90;;;;;;5058968;28;20036;-72
2020/12/02 03:14:01;;;;;;;54.67;23.48;;;8.80;99.90;;;;;;5055075;28;20108;-73
2020/12/02 03:16:52;;;;;;;57.17;22.88;;;8.80;99.90;;;;;;5057215;28;20029;-73
2020/12/02 03:19:30;;;;;;;55.42;24.35;;;8.80;99.90;;;;;;5061600;28;20426;-73
2020/12/02 03:22:02;;;;;;;50.88;22.95;;;8.90;99.90;;;;;;5057485;28;20091;-72
2020/12/02 03:24:29;;;;;;;51.30;23.23;;;8.90;99.90;;;;;;5065154;28;20021;-73
2020/12/02 03:26:54;;;;;;;53.17;21.42;;;8.90;99.90;;;;;;5047024;28;20033;-73
2020/12/02 03:29:22;;;;;;;47.90;20.70;;;8.90;99.90;;;;;;5056414;28;20032;-73
2020/12/02 03:31:48;;;;;;;48.33;20.13;;;8.90;99.90;;;;;;5052660;28;20537;-73
2020/12/02 03:34:17;;;;;;;42.90;19.10;;;8.90;99.90;;;;;;5059315;28;20031;-72
2020/12/02 03:36:43;;;;;;;57.72;22.35;;;8.90;99.90;;;;;;5063274;28;20079;-73
2020/12/02 03:39:10;;;;;;;49.35;21.90;;;8.90;99.90;;;;;;5066057;28;20428;-72
2020/12/02 03:41:39;;;;;;;61.40;22.10;;;8.90;99.90;;;;;;5059513;28;20029;-73
2020/12/02 03:44:06;;;;;;;62.15;23.30;;;8.90;99.90;;;;;;5058102;28;20025;-73
2020/12/02 03:46:32;;;;;;;62.83;23.95;;;8.90;99.90;;;;;;5058687;28;20086;-73
2020/12/02 03:48:58;;;;;;;58.40;23.55;;;8.90;99.90;;;;;;5054042;28;20419;-73
2020/12/02 03:51:24;;;;;;;60.55;23.25;;;8.90;99.90;;;;;;5055023;28;20063;-73
2020/12/02 03:53:50;;;;;;;63.92;22.85;;;8.80;99.90;;;;;;5052305;28;20473;-73
2020/12/02 03:56:16;;;;;;;55.03;22.30;;;8.80;99.90;;;;;;5053730;28;20477;-73
2020/12/02 03:58:42;;;;;;;61.22;22.92;;;8.80;99.90;;;;;;5055145;28;20021;-73
2020/12/02 04:01:08;;;;;;;56.22;21.50;;;8.80;99.90;;;;;;5054244;28;20033;-73
2020/12/02 04:03:37;;;;;;;55.25;21.45;;;8.80;99.90;;;;;;5057532;28;20029;-72
2020/12/02 04:06:04;;;;;;;54.53;20.60;;;8.80;99.90;;;;;;5056679;28;20591;-73
2020/12/02 04:08:30;;;;;;;50.40;20.20;;;8.80;99.90;;;;;;5054592;28;20021;-73
2020/12/02 04:10:56;;;;;;;52.47;19.63;;;8.80;99.90;;;;;;5054589;28;20039;-73
2020/12/02 04:13:22;;;;;;;54.70;20.27;;;8.80;99.90;;;;;;5058145;28;20029;-73
2020/12/02 04:15:47;;;;;;;51.78;19.88;;;8.80;99.90;;;;;;5055623;28;20028;-72
2020/12/02 04:18:13;;;;;;;50.35;20.25;;;8.80;99.90;;;;;;5056287;28;20104;-73
2020/12/02 04:20:39;;;;;;;51.83;20.08;;;8.80;99.90;;;;;;5057531;28;20078;-73
2020/12/02 04:23:05;;;;;;;50.70;19.98;;;8.80;99.90;;;;;;5057548;28;20112;-73
2020/12/02 04:25:31;;;;;;;53.72;20.83;;;8.80;99.90;;;;;;5053171;28;20105;-73
2020/12/02 04:27:56;;;;;;;71.95;22.38;;;8.80;99.90;;;;;;5051222;28;20061;-73
2020/12/02 04:30:22;;;;;;;58.53;20.42;;;8.80;99.90;;;;;;5059229;28;20036;-73
2020/12/02 04:32:48;;;;;;;51.15;20.80;;;8.70;99.90;;;;;;5055206;28;20477;-73
2020/12/02 04:35:15;;;;;;;50.70;19.10;;;8.70;99.90;;;;;;5054755;28;20021;-73
2020/12/02 04:37:42;;;;;;;51.35;20.65;;;8.70;99.90;;;;;;5057259;28;20065;-73
2020/12/02 04:40:12;;;;;;;50.78;19.27;;;8.70;99.90;;;;;;5054119;28;20680;-73
2020/12/02 04:42:41;;;;;;;52.60;21.88;;;8.70;99.90;;;;;;5060769;28;20048;-73
2020/12/02 04:45:12;;;;;;;51.35;21.25;;;8.70;99.90;;;;;;5060389;28;20031;-73
2020/12/02 04:47:41;;;;;;;53.67;19.95;;;8.80;99.90;;;;;;5059700;28;20488;-73
2020/12/02 04:50:27;;;;;;;49.80;18.98;;;8.70;99.90;;;;;;5053951;28;20032;-73
2020/12/02 04:53:22;;;;;;;49.10;19.67;;;8.70;99.90;;;;;;5063428;28;20442;-73
2020/12/02 04:55:57;;;;;;;93.75;24.08;;;8.70;99.90;;;;;;5064131;28;20032;-73
2020/12/02 04:58:25;;;;;;;75.60;22.50;;;8.70;99.90;;;;;;5060072;28;20090;-73
2020/12/02 05:00:51;;;;;;;52.85;20.80;;;8.70;99.90;;;;;;5067913;28;20078;-73
2020/12/02 05:03:17;;;;;;;46.33;20.35;;;8.70;99.90;;;;;;5056655;28;20448;-73
2020/12/02 05:05:43;;;;;;;53.25;20.70;;;8.70;99.90;;;;;;5066129;28;20032;-73
2020/12/02 05:08:27;;;;;;;49.92;20.08;;;8.70;99.90;;;;;;5065397;28;20503;-73
2020/12/02 05:10:54;;;;;;;53.85;19.80;;;8.70;99.90;;;;;;5061096;28;20056;-73
2020/12/02 05:13:21;;;;;;;50.35;19.23;;;8.70;99.90;;;;;;5060231;28;20021;-73
2020/12/02 05:15:47;;;;;;;56.95;21.23;;;8.70;99.90;;;;;;5057291;28;20068;-73
2020/12/02 05:18:18;;;;;;;59.08;23.02;;;8.70;99.90;;;;;;5058408;28;20064;-73
2020/12/02 05:21:18;;;;;;;190.45;32.83;;;8.70;99.90;;;;;;5055382;28;20036;-73
2020/12/02 05:23:44;;;;;;;128.10;26.70;;;8.70;99.90;;;;;;5058368;28;20039;-74
2020/12/02 05:26:17;;;;;;;68.60;22.80;;;8.70;99.90;;;;;;5058812;28;20020;-74
2020/12/02 05:28:45;;;;;;;107.68;26.50;;;8.70;99.90;;;;;;5060373;28;20501;-74
2020/12/02 05:31:17;;;;;;;69.22;23.17;;;8.70;99.90;;;;;;5056452;28;20040;-74
2020/12/02 05:33:43;;;;;;;72.75;23.80;;;8.60;99.90;;;;;;5055798;28;20052;-73
2020/12/02 05:36:28;;;;;;;95.15;26.10;;;8.60;99.90;;;;;;5056693;28;20154;-73
2020/12/02 05:39:02;;;;;;;90.97;24.83;;;8.60;99.90;;;;;;5057480;28;20389;-74
2020/12/02 05:41:28;;;;;;;86.82;27.88;;;8.60;99.90;;;;;;5067477;28;20071;-73
2020/12/02 05:43:59;;;;;;;84.15;26.75;;;8.60;99.90;;;;;;5064597;28;20081;-73
2020/12/02 05:46:39;;;;;;;97.25;28.08;;;8.70;99.90;;;;;;5057131;28;20506;-73
2020/12/02 05:49:09;;;;;;;108.93;28.67;;;8.60;99.90;;;;;;5056986;28;20071;-73
2020/12/02 05:51:35;;;;;;;87.13;26.75;;;8.60;99.90;;;;;;5060305;28;20029;-73
2020/12/02 05:54:14;;;;;;;94.18;28.33;;;8.60;99.90;;;;;;5054412;28;20017;-73
2020/12/02 05:56:40;;;;;;;90.72;27.00;;;8.60;99.90;;;;;;5059660;28;20131;-73
2020/12/02 05:59:06;;;;;;;94.80;27.25;;;8.50;99.90;;;;;;5055521;28;20107;-74
2020/12/02 06:01:32;;;;;;;98.63;27.85;;;8.60;99.90;;;;;;5055105;28;20030;-73
2020/12/02 06:03:59;;;;;;;177.80;32.63;;;8.50;99.90;;;;;;5062374;28;20547;-73
2020/12/02 06:06:30;;;;;;;77.13;26.33;;;8.50;99.90;;;;;;5054981;28;20025;-73
2020/12/02 06:08:56;;;;;;;73.15;24.98;;;8.60;99.90;;;;;;5057121;28;20036;-73
2020/12/02 06:11:26;;;;;;;73.95;24.83;;;8.60;99.90;;;;;;5055726;28;20036;-74
2020/12/02 06:13:56;;;;;;;69.22;24.48;;;8.60;99.90;;;;;;5058156;28;20032;-73
2020/12/02 06:16:33;;;;;;;124.95;28.35;;;8.60;99.90;;;;;;5057162;28;20024;-74
2020/12/02 06:19:17;;;;;;;109.75;28.27;;;8.50;99.90;;;;;;5054349;28;20026;-74
2020/12/02 06:21:47;;;;;;;116.25;28.35;;;8.50;99.90;;;;;;5057850;28;20033;-73
2020/12/02 06:24:35;;;;;;;173.95;32.05;;;8.60;99.90;;;;;;5061860;28;20017;-74
2020/12/02 06:27:15;;;;;;;64.68;22.13;;;8.50;99.90;;;;;;5055604;28;20044;-74
2020/12/02 06:29:44;;;;;;;72.75;24.70;;;8.50;99.90;;;;;;5060803;28;20047;-73
2020/12/02 06:32:12;;;;;;;67.03;23.00;;;8.60;99.90;;;;;;5055411;28;20394;-74
2020/12/02 06:34:38;;;;;;;63.78;22.70;;;8.50;99.90;;;;;;5059167;28;20366;-74
2020/12/02 06:37:19;;;;;;;136.57;27.35;;;8.40;99.90;;;;;;5059128;28;20142;-74
2020/12/02 06:39:54;;;;;;;66.72;22.17;;;8.40;99.90;;;;;;5053496;28;20465;-74
2020/12/02 06:42:28;;;;;;;68.90;23.33;;;8.40;99.90;;;;;;5057438;28;20501;-74
2020/12/02 06:44:57;;;;;;;72.25;22.73;;;8.40;99.90;;;;;;5066501;28;20025;-74
2020/12/02 06:47:27;;;;;;;72.03;24.27;;;8.50;99.90;;;;;;5055526;28;20071;-74
2020/12/02 06:49:56;;;;;;;77.45;25.17;;;8.50;99.90;;;;;;5058585;28;20021;-73
2020/12/02 06:52:38;;;;;;;78.55;24.48;;;8.60;99.90;;;;;;5054549;28;20041;-73
2020/12/02 06:55:14;;;;;;;74.47;23.88;;;8.60;99.90;;;;;;5057274;28;20040;-73
2020/12/02 06:57:41;;;;;;;82.28;23.45;;;8.60;99.90;;;;;;5050009;28;20037;-74
2020/12/02 07:00:15;;;;;;;84.55;26.70;;;8.50;99.90;;;;;;5057520;28;20021;-74
2020/12/02 07:02:55;;;;;;;78.68;24.33;;;8.50;99.90;;;;;;5051252;28;20056;-73
2020/12/02 07:05:25;;;;;;;81.57;26.00;;;8.50;99.90;;;;;;5057369;28;20017;-74
2020/12/02 07:08:11;;;;;;;78.20;24.65;;;8.60;99.90;;;;;;5056632;28;20382;-74
2020/12/02 07:10:38;;;;;;;80.47;25.23;;;8.60;99.90;;;;;;5064079;28;20037;-73
2020/12/02 07:13:04;;;;;;;130.75;28.75;;;8.60;99.90;;;;;;5056994;28;20111;-74
2020/12/02 07:15:30;;;;;;;97.07;25.65;;;8.60;99.90;;;;;;5060392;28;20065;-74
2020/12/02 07:18:18;;;;;;;59.97;20.45;;;8.60;99.90;;;;;;5060242;28;20543;-74
2020/12/02 07:20:47;;;;;;;52.17;21.48;;;8.60;99.90;;;;;;5057208;28;20025;-73
2020/12/02 07:23:17;;;;;;;75.00;23.27;;;8.60;99.90;;;;;;5056049;28;20078;-73
2020/12/02 07:25:42;;;;;;;59.15;21.15;;;8.60;99.90;;;;;;5065311;28;20047;-73
2020/12/02 07:28:18;;;;;;;94.40;24.77;;;8.60;99.90;;;;;;5057560;28;20474;-73
2020/12/02 07:30:45;;;;;;;162.20;30.90;;;8.60;99.90;;;;;;5059256;28;20020;-73
2020/12/02 07:33:29;;;;;;;61.70;21.98;;;8.60;99.90;;;;;;5054822;28;20067;-73
2020/12/02 07:36:13;;;;;;;55.95;20.10;;;8.60;99.90;;;;;;5055245;28;20124;-73
2020/12/02 07:38:38;;;;;;;57.08;21.70;;;8.70;99.90;;;;;;5059458;28;20024;-73
2020/12/02 07:41:08;;;;;;;59.15;20.58;;;8.70;99.90;;;;;;5056971;28;20390;-73
2020/12/02 07:43:36;;;;;;;57.83;19.58;;;8.70;99.90;;;;;;5065511;28;20090;-73
2020/12/02 07:46:02;;;;;;;69.00;22.35;;;8.60;99.90;;;;;;5057726;28;20017;-73
2020/12/02 07:48:30;;;;;;;47.88;18.75;;;8.50;99.90;;;;;;5055733;28;20084;-73
2020/12/02 07:51:21;;;;;;;62.22;22.25;;;8.50;99.90;;;;;;5056899;28;20047;-73
2020/12/02 07:53:49;;;;;;;58.92;21.25;;;8.40;99.90;;;;;;5053149;28;20089;-73
2020/12/02 07:56:21;;;;;;;61.58;22.83;;;8.40;99.90;;;;;;5055455;28;20033;-73
2020/12/02 07:58:47;;;;;;;100.68;24.13;;;8.50;99.90;;;;;;5061295;28;20062;-71
2020/12/02 08:01:45;;;;;;;56.45;21.42;;;8.50;99.90;;;;;;5056013;28;20043;-72
2020/12/02 08:04:32;;;;;;;79.57;22.75;;;8.50;99.90;;;;;;5054363;28;20109;-71
2020/12/02 08:07:07;;;;;;;48.78;19.92;;;8.50;99.90;;;;;;5055687;28;20028;-72
2020/12/02 08:09:41;;;;;;;72.18;23.70;;;8.60;99.90;;;;;;5053559;28;20480;-71
2020/12/02 08:12:10;;;;;;;93.72;23.88;;;8.60;99.90;;;;;;5057317;28;20047;-71
2020/12/02 08:14:46;;;;;;;81.88;22.88;;;8.50;99.90;;;;;;5062946;28;20473;-71
2020/12/02 08:17:17;;;;;;;60.63;22.05;;;8.50;99.90;;;;;;5053011;28;20465;-71
2020/12/02 08:19:45;;;;;;;62.08;22.02;;;8.50;99.90;;;;;;5054747;28;20079;-71
2020/12/02 08:22:38;;;;;;;59.63;22.20;;;8.50;99.90;;;;;;5056046;28;20025;-72
2020/12/02 08:25:32;;;;;;;123.55;27.42;;;8.50;99.90;;;;;;5058971;28;20143;-71
2020/12/02 08:28:00;;;;;;;56.85;20.90;;;8.50;99.90;;;;;;5058821;28;20094;-72
2020/12/02 08:30:28;;;;;;;74.00;22.38;;;8.60;99.90;;;;;;5057756;28;20020;-72
2020/12/02 08:33:11;;;;;;;123.38;27.17;;;8.60;99.90;;;;;;5058940;28;20492;-72
2020/12/02 08:35:36;;;;;;;66.80;21.13;;;8.50;99.90;;;;;;5056616;28;20021;-72
2020/12/02 08:38:03;;;;;;;106.20;25.17;;;8.60;99.90;;;;;;5057233;28;20029;-71
2020/12/02 08:40:36;;;;;;;100.93;25.58;;;8.50;99.90;;;;;;5049906;28;20029;-72
2020/12/02 08:43:16;;;;;;;61.08;21.42;;;8.60;99.90;;;;;;5055303;28;20508;-72
2020/12/02 08:46:20;;;;;;;59.95;21.05;;;8.60;99.90;;;;;;5064833;28;20418;-72
2020/12/02 08:48:49;;;;;;;68.10;22.42;;;8.70;99.90;;;;;;5057112;28;20094;-72
2020/12/02 08:51:20;;;;;;;66.20;23.63;;;8.70;99.90;;;;;;5055226;28;20033;-72
2020/12/02 08:53:47;;;;;;;82.75;26.52;;;8.70;99.90;;;;;;5055111;28;20110;-72
2020/12/02 08:56:34;;;;;;;66.18;24.60;;;8.70;99.90;;;;;;5058853;28;20018;-72
2020/12/02 08:59:01;;;;;;;72.68;24.70;;;8.70;99.90;;;;;;5058396;28;20029;-73
2020/12/02 09:01:27;;;;;;;93.82;24.58;;;8.70;99.90;;;;;;5064578;28;20016;-73
2020/12/02 09:03:53;;;;;;;108.63;26.50;;;8.70;99.90;;;;;;5063638;28;20036;-72
2020/12/02 09:06:20;;;;;;;85.65;25.70;;;8.70;99.90;;;;;;5062943;28;20017;-72
2020/12/02 09:08:47;;;;;;;76.30;24.55;;;8.70;99.90;;;;;;5057787;28;20036;-73
2020/12/02 09:11:21;;;;;;;91.85;23.40;;;8.70;99.90;;;;;;5058070;28;20037;-73
2020/12/02 09:13:47;;;;;;;72.43;23.15;;;8.70;99.90;;;;;;5053083;28;20032;-75
2020/12/02 09:16:19;;;;;;;85.20;25.90;;;8.70;99.90;;;;;;5066377;28;20069;-74
2020/12/02 09:18:44;;;;;;;76.65;24.15;;;8.70;99.90;;;;;;5057759;28;20021;-72
2020/12/02 09:21:10;;;;;;;73.20;23.27;;;8.70;99.90;;;;;;5063524;28;20044;-72
2020/12/02 09:23:36;;;;;;;67.05;24.13;;;8.70;99.90;;;;;;5063152;28;20023;-72
2020/12/02 09:26:01;;;;;;;72.80;24.95;;;8.80;99.90;;;;;;5063964;28;20029;-72
2020/12/02 09:28:27;;;;;;;65.78;25.33;;;8.80;99.90;;;;;;5055080;28;20389;-72
2020/12/02 09:30:52;;;;;;;72.47;24.42;;;8.70;99.90;;;;;;5057877;28;20045;-73
2020/12/02 09:33:18;;;;;;;72.78;24.65;;;8.70;99.90;;;;;;5053223;28;20025;-72
2020/12/02 09:35:44;;;;;;;62.60;23.98;;;8.80;99.90;;;;;;5054304;28;20497;-72
2020/12/02 09:38:10;;;;;;;61.95;24.80;;;8.80;99.90;;;;;;5054398;28;20423;-73
2020/12/02 09:40:35;;;;;;;74.07;26.85;;;8.70;99.90;;;;;;5058049;28;20128;-73
2020/12/02 09:43:20;;;;;;;67.97;24.58;;;8.70;99.90;;;;;;5056163;28;20013;-73
2020/12/02 09:45:57;;;;;;;85.28;27.38;;;8.70;99.90;;;;;;5064102;28;20025;-73
2020/12/02 09:48:23;;;;;;;68.80;24.40;;;8.70;99.90;;;;;;5057396;28;20029;-73
2020/12/02 09:50:50;;;;;;;86.45;27.27;;;8.70;99.90;;;;;;5054945;28;20037;-73
2020/12/02 09:53:28;;;;;;;75.28;25.35;;;8.80;99.90;;;;;;5053879;28;20029;-73
2020/12/02 09:55:54;;;;;;;60.38;22.73;;;8.70;99.90;;;;;;5054638;28;20048;-73
2020/12/02 09:58:20;;;;;;;68.15;24.15;;;8.80;99.90;;;;;;5053787;28;20062;-72
2020/12/02 10:00:46;;;;;;;76.55;27.42;;;8.80;99.90;;;;;;5053623;28;20082;-72
2020/12/02 10:03:33;;;;;;;74.35;25.73;;;8.80;99.90;;;;;;5058051;28;20122;-72
2020/12/02 10:06:40;;;;;;;77.43;27.23;;;8.80;99.90;;;;;;5056263;28;20029;-72
2020/12/02 10:09:27;;;;;;;90.32;28.25;;;8.80;99.90;;;;;;5054525;28;20382;-71
2020/12/02 10:12:20;;;;;;;94.30;27.92;;;8.70;99.90;;;;;;5057900;28;20037;-72
2020/12/02 10:14:50;;;;;;;81.97;26.85;;;8.70;99.90;;;;;;5053247;28;20025;-72
2020/12/02 10:17:16;;;;;;;127.15;30.15;;;8.80;99.90;;;;;;5055513;28;20482;-71
2020/12/02 10:20:18;;;;;;;110.57;29.27;;;8.70;99.90;;;;;;5052481;28;20036;-72
2020/12/02 10:22:53;;;;;;;80.68;28.70;;;8.70;99.90;;;;;;5055673;28;20111;-72
2020/12/02 10:25:36;;;;;;;117.25;31.38;;;8.70;99.90;;;;;;5060579;28;20082;-71
2020/12/02 10:28:40;;;;;;;79.28;26.65;;;8.70;99.90;;;;;;5054199;28;20032;-72
2020/12/02 10:31:22;;;;;;;100.47;31.13;;;8.70;99.90;;;;;;5054763;28;20025;-72
2020/12/02 10:34:01;;;;;;;91.47;28.97;;;8.70;99.90;;;;;;5060389;28;20033;-72
2020/12/02 10:36:37;;;;;;;106.13;28.92;;;8.60;99.90;;;;;;5061479;28;20733;-72
2020/12/02 10:39:10;;;;;;;143.40;33.70;;;8.60;99.90;;;;;;5055635;28;20086;-71
2020/12/02 10:42:03;;;;;;;159.68;36.47;;;8.60;99.90;;;;;;5055508;28;20157;-72
2020/12/02 10:44:31;;;;;;;88.72;27.45;;;8.60;99.90;;;;;;5057155;28;20484;-72
2020/12/02 10:47:00;;;;;;;81.40;27.13;;;8.60;99.90;;;;;;5053667;28;20098;-72
2020/12/02 10:49:31;;;;;;;87.13;30.17;;;8.60;99.90;;;;;;5053070;28;20094;-74
2020/12/02 10:51:59;;;;;;;105.85;29.55;;;8.70;99.90;;;;;;5051805;28;20043;-71
2020/12/02 10:54:32;;;;;;;115.88;30.85;;;8.70;99.90;;;;;;5054550;28;20020;-72
2020/12/02 10:56:58;;;;;;;97.88;30.27;;;8.70;99.90;;;;;;5054599;28;20028;-72
2020/12/02 10:59:25;;;;;;;87.47;29.63;;;8.80;99.90;;;;;;5058434;28;20029;-72
2020/12/02 11:01:52;;;;;;;93.28;29.65;;;8.80;99.90;;;;;;5052952;28;20036;-73
2020/12/02 11:04:19;;;;;;;89.95;29.08;;;8.80;99.90;;;;;;5053720;28;20025;-72
2020/12/02 11:06:55;;;;;;;92.90;28.25;;;8.80;99.90;;;;;;5047726;28;20025;-73
2020/12/02 11:10:05;;;;;;;86.20;28.25;;;8.80;99.90;;;;;;5059649;28;20039;-72
2020/12/02 11:13:02;;;;;;;93.32;28.73;;;8.80;99.90;;;;;;5048608;28;20144;-72
2020/12/02 11:15:50;;;;;;;77.45;26.15;;;8.80;99.90;;;;;;5057188;28;20021;-72
2020/12/02 11:18:46;;;;;;;89.90;27.65;;;8.90;99.90;;;;;;5054065;28;20607;-72
2020/12/02 11:21:24;;;;;;;102.13;28.40;;;8.90;99.90;;;;;;5056603;28;20196;-72
2020/12/02 11:23:56;;;;;;;88.50;27.00;;;8.80;99.90;;;;;;5059830;28;20029;-72
2020/12/02 11:26:35;;;;;;;92.47;29.17;;;8.80;99.90;;;;;;5068068;28;20032;-72
2020/12/02 11:29:04;;;;;;;111.03;30.83;;;8.70;99.90;;;;;;5061162;28;20283;-72
2020/12/02 11:31:33;;;;;;;98.00;29.45;;;8.70;99.90;;;;;;5063580;28;20033;-72
2020/12/02 11:34:07;;;;;;;105.13;29.95;;;8.80;99.90;;;;;;5061795;28;20467;-72
2020/12/02 11:36:55;;;;;;;93.80;29.40;;;8.80;99.90;;;;;;5053161;28;20033;-72
2020/12/02 11:39:58;;;;;;;105.70;29.73;;;8.80;99.90;;;;;;5051002;28;20025;-71
2020/12/02 11:42:37;;;;;;;153.77;31.63;;;8.80;99.90;;;;;;5050280;28;20037;-71
2020/12/02 11:45:17;;;;;;;138.57;32.65;;;8.80;99.90;;;;;;5050608;28;20110;-73
2020/12/02 11:48:07;;;;;;;114.35;30.70;;;8.70;99.90;;;;;;5058490;28;20044;-72
2020/12/02 11:50:44;;;;;;;124.53;31.45;;;8.70;99.90;;;;;;5053474;28;20017;-71
2020/12/02 11:53:35;;;;;;;118.13;32.38;;;8.80;99.90;;;;;;5058933;28;20419;-72
2020/12/02 11:56:02;;;;;;;103.00;30.40;;;8.80;99.90;;;;;;5058010;28;20032;-76
2020/12/02 11:58:28;;;;;;;124.53;32.50;;;8.80;99.90;;;;;;5062766;28;20029;-73
2020/12/02 12:01:03;;;;;;;100.78;29.58;;;8.80;99.90;;;;;;5065883;28;20024;-72
2020/12/02 12:03:40;;;;;;;195.95;35.83;;;8.90;99.90;;;;;;5066848;28;20027;-73
2020/12/02 12:06:20;;;;;;;107.57;29.88;;;8.90;99.90;;;;;;5063563;28;20059;-75
2020/12/02 12:08:57;;;;;;;107.72;29.45;;;8.80;99.90;;;;;;5065428;28;20050;-72
2020/12/02 12:11:26;;;;;;;97.47;27.80;;;8.80;99.90;;;;;;5065079;28;20128;-73
2020/12/02 12:14:17;;;;;;;124.50;29.92;;;8.80;99.90;;;;;;5060903;28;20504;-72
2020/12/02 12:17:19;;;;;;;118.78;30.10;;;8.80;99.90;;;;;;5058818;28;20076;-71
2020/12/02 12:19:45;;;;;;;103.75;30.58;;;8.80;99.90;;;;;;5058914;28;20489;-72
2020/12/02 12:22:37;;;;;;;106.90;30.80;;;8.80;99.90;;;;;;5066751;28;20119;-71
2020/12/02 12:25:19;;;;;;;94.85;29.40;;;8.80;99.90;;;;;;5068215;28;20112;-71
2020/12/02 12:27:46;;;;;;;128.45;31.88;;;8.80;99.90;;;;;;5059347;28;20040;-71
2020/12/02 12:30:13;;;;;;;139.80;31.95;;;8.80;99.90;;;;;;5055401;28;20033;-71
2020/12/02 12:32:41;;;;;;;106.80;29.63;;;8.90;99.90;;;;;;5056161;28;20037;-71
2020/12/02 12:35:17;;;;;;;114.90;31.13;;;8.90;99.90;;;;;;5054888;28;20498;-71
2020/12/02 12:38:04;;;;;;;107.03;28.88;;;8.90;99.90;;;;;;5059401;28;20024;-72
2020/12/02 12:41:14;;;;;;;141.07;32.55;;;8.90;99.90;;;;;;5053307;28;20485;-71
2020/12/02 12:43:57;;;;;;;106.38;30.42;;;8.90;99.90;;;;;;5061047;28;20115;-71
2020/12/02 12:46:34;;;;;;;103.75;29.63;;;8.90;99.90;;;;;;5047796;28;20020;-72
2020/12/02 12:49:04;;;;;;;84.13;29.42;;;8.90;99.90;;;;;;5054500;28;20033;-72
2020/12/02 12:51:31;;;;;;;88.15;28.23;;;8.90;99.90;;;;;;5053162;28;20505;-72
2020/12/02 12:54:01;;;;;;;91.20;27.42;;;8.90;99.90;;;;;;5062536;28;20485;-71
2020/12/02 12:56:29;;;;;;;92.80;27.42;;;8.90;99.90;;;;;;5055154;28;20520;-73
2020/12/02 12:58:55;;;;;;;77.57;25.50;;;8.90;99.90;;;;;;5056541;28;20382;-73
2020/12/02 13:01:21;;;;;;;73.80;24.17;;;9.00;99.90;;;;;;5059034;28;20021;-73
2020/12/02 13:03:50;;;;;;;72.57;24.48;;;9.00;99.90;;;;;;5065405;28;20032;-73
2020/12/02 13:07:02;;;;;;;73.88;25.63;;;9.00;99.90;;;;;;5058592;28;20119;-73